sensor_id;sensor_type;location;lat;lon;timestamp;P1;durP1;ratioP1;P2;durP2;ratioP2
15905;SDS011;8051;50.820;4.884;2023-02-01T00:00:41;47.93;;;28.10;;
15905;SDS011;8051;50.820;4.884;2023-02-01T00:03:08;36.97;;;25.93;;
15905;SDS011;8051;50.820;4.884;2023-02-01T00:05:38;43.33;;;25.50;;
15905;SDS011;8051;50.820;4.884;2023-02-01T00:08:05;40.50;;;22.47;;
15905;SDS011;8051;50.820;4.884;2023-02-01T00:10:33;31.97;;;24.30;;
15905;SDS011;8051;50.820;4.884;2023-02-01T00:13:00;36.67;;;24.27;;
15905;SDS011;8051;50.820;4.884;2023-02-01T00:15:29;39.83;;;25.63;;
15905;SDS011;8051;50.820;4.884;2023-02-01T00:17:58;41.63;;;27.67;;
15905;SDS011;8051;50.820;4.884;2023-02-01T00:20:26;39.40;;;27.80;;
15905;SDS011;8051;50.820;4.884;2023-02-01T00:22:53;44.57;;;29.80;;
15905;SDS011;8051;50.820;4.884;2023-02-01T00:25:21;42.07;;;31.33;;
15905;SDS011;8051;50.820;4.884;2023-02-01T00:27:48;55.70;;;30.60;;
15905;SDS011;8051;50.820;4.884;2023-02-01T00:30:17;47.93;;;31.67;;
15905;SDS011;8051;50.820;4.884;2023-02-01T00:32:46;45.83;;;31.07;;
15905;SDS011;8051;50.820;4.884;2023-02-01T00:35:13;50.57;;;32.57;;
15905;SDS011;8051;50.820;4.884;2023-02-01T00:37:41;58.17;;;32.90;;
15905;SDS011;8051;50.820;4.884;2023-02-01T00:40:09;47.20;;;32.90;;
15905;SDS011;8051;50.820;4.884;2023-02-01T00:42:37;54.77;;;32.37;;
15905;SDS011;8051;50.820;4.884;2023-02-01T00:45:05;40.47;;;33.63;;
15905;SDS011;8051;50.820;4.884;2023-02-01T00:47:33;51.23;;;33.53;;
15905;SDS011;8051;50.820;4.884;2023-02-01T00:50:02;47.27;;;34.30;;
15905;SDS011;8051;50.820;4.884;2023-02-01T00:52:30;51.37;;;32.90;;
15905;SDS011;8051;50.820;4.884;2023-02-01T00:54:57;52.40;;;33.90;;
15905;SDS011;8051;50.820;4.884;2023-02-01T00:57:25;47.57;;;32.67;;
15905;SDS011;8051;50.820;4.884;2023-02-01T00:59:52;48.77;;;32.57;;
15905;SDS011;8051;50.820;4.884;2023-02-01T01:02:20;51.50;;;34.70;;
15905;SDS011;8051;50.820;4.884;2023-02-01T01:04:47;63.03;;;33.73;;
15905;SDS011;8051;50.820;4.884;2023-02-01T01:07:16;49.07;;;33.63;;
15905;SDS011;8051;50.820;4.884;2023-02-01T01:09:44;46.60;;;33.00;;
15905;SDS011;8051;50.820;4.884;2023-02-01T01:12:11;48.50;;;33.00;;
15905;SDS011;8051;50.820;4.884;2023-02-01T01:14:38;52.23;;;33.87;;
15905;SDS011;8051;50.820;4.884;2023-02-01T01:17:06;40.03;;;31.37;;
15905;SDS011;8051;50.820;4.884;2023-02-01T01:19:33;48.50;;;32.23;;
15905;SDS011;8051;50.820;4.884;2023-02-01T01:22:00;46.63;;;32.23;;
15905;SDS011;8051;50.820;4.884;2023-02-01T01:24:29;40.03;;;29.67;;
15905;SDS011;8051;50.820;4.884;2023-02-01T01:26:57;37.53;;;29.23;;
15905;SDS011;8051;50.820;4.884;2023-02-01T01:29:24;33.93;;;25.60;;
15905;SDS011;8051;50.820;4.884;2023-02-01T01:31:52;42.83;;;28.10;;
15905;SDS011;8051;50.820;4.884;2023-02-01T01:34:19;44.57;;;24.90;;
15905;SDS011;8051;50.820;4.884;2023-02-01T01:36:47;35.00;;;25.83;;
15905;SDS011;8051;50.820;4.884;2023-02-01T01:39:14;34.70;;;23.87;;
15905;SDS011;8051;50.820;4.884;2023-02-01T01:41:43;25.13;;;22.43;;
15905;SDS011;8051;50.820;4.884;2023-02-01T01:47:11;28.17;;;21.40;;
15905;SDS011;8051;50.820;4.884;2023-02-01T01:49:40;36.43;;;23.00;;
15905;SDS011;8051;50.820;4.884;2023-02-01T01:52:08;39.40;;;24.97;;
15905;SDS011;8051;50.820;4.884;2023-02-01T01:54:37;32.40;;;23.73;;
15905;SDS011;8051;50.820;4.884;2023-02-01T01:57:11;39.17;;;24.03;;
15905;SDS011;8051;50.820;4.884;2023-02-01T01:59:43;25.37;;;22.10;;
15905;SDS011;8051;50.820;4.884;2023-02-01T02:02:14;30.03;;;24.07;;
15905;SDS011;8051;50.820;4.884;2023-02-01T02:04:42;36.10;;;23.37;;
15905;SDS011;8051;50.820;4.884;2023-02-01T02:07:10;32.03;;;22.80;;
15905;SDS011;8051;50.820;4.884;2023-02-01T02:09:40;29.10;;;23.03;;
15905;SDS011;8051;50.820;4.884;2023-02-01T02:12:09;23.93;;;21.73;;
15905;SDS011;8051;50.820;4.884;2023-02-01T02:14:37;24.13;;;20.13;;
15905;SDS011;8051;50.820;4.884;2023-02-01T02:17:12;25.57;;;21.90;;
15905;SDS011;8051;50.820;4.884;2023-02-01T02:23:08;22.90;;;20.50;;
15905;SDS011;8051;50.820;4.884;2023-02-01T02:26:04;30.00;;;21.73;;
15905;SDS011;8051;50.820;4.884;2023-02-01T02:28:59;30.50;;;21.53;;
15905;SDS011;8051;50.820;4.884;2023-02-01T02:32:05;28.03;;;21.37;;
15905;SDS011;8051;50.820;4.884;2023-02-01T02:34:56;23.60;;;21.10;;
15905;SDS011;8051;50.820;4.884;2023-02-01T02:37:30;24.63;;;20.50;;
15905;SDS011;8051;50.820;4.884;2023-02-01T02:40:06;22.97;;;20.67;;
15905;SDS011;8051;50.820;4.884;2023-02-01T02:42:42;25.80;;;20.83;;
15905;SDS011;8051;50.820;4.884;2023-02-01T02:45:34;23.73;;;21.10;;
15905;SDS011;8051;50.820;4.884;2023-02-01T02:48:25;28.23;;;20.27;;
15905;SDS011;8051;50.820;4.884;2023-02-01T02:50:59;29.77;;;21.13;;
15905;SDS011;8051;50.820;4.884;2023-02-01T02:53:48;21.03;;;18.83;;
15905;SDS011;8051;50.820;4.884;2023-02-01T02:56:37;25.67;;;19.40;;
15905;SDS011;8051;50.820;4.884;2023-02-01T02:59:24;26.63;;;20.07;;
15905;SDS011;8051;50.820;4.884;2023-02-01T03:02:10;24.47;;;19.90;;
15905;SDS011;8051;50.820;4.884;2023-02-01T03:04:56;26.50;;;20.80;;
15905;SDS011;8051;50.820;4.884;2023-02-01T03:10:22;25.50;;;19.73;;
15905;SDS011;8051;50.820;4.884;2023-02-01T03:12:59;22.67;;;19.70;;
15905;SDS011;8051;50.820;4.884;2023-02-01T03:15:32;23.67;;;19.10;;
15905;SDS011;8051;50.820;4.884;2023-02-01T03:18:06;21.50;;;19.47;;
15905;SDS011;8051;50.820;4.884;2023-02-01T03:20:39;25.80;;;19.63;;
15905;SDS011;8051;50.820;4.884;2023-02-01T03:23:13;21.73;;;19.67;;
15905;SDS011;8051;50.820;4.884;2023-02-01T03:25:42;21.53;;;19.30;;
15905;SDS011;8051;50.820;4.884;2023-02-01T03:28:10;21.30;;;19.00;;
15905;SDS011;8051;50.820;4.884;2023-02-01T03:30:39;24.17;;;19.90;;
15905;SDS011;8051;50.820;4.884;2023-02-01T03:33:10;29.43;;;20.07;;
15905;SDS011;8051;50.820;4.884;2023-02-01T03:35:48;26.03;;;20.30;;
15905;SDS011;8051;50.820;4.884;2023-02-01T03:38:24;23.40;;;19.43;;
15905;SDS011;8051;50.820;4.884;2023-02-01T03:40:57;28.03;;;20.20;;
15905;SDS011;8051;50.820;4.884;2023-02-01T03:43:29;31.27;;;20.80;;
15905;SDS011;8051;50.820;4.884;2023-02-01T03:46:05;22.77;;;20.10;;
15905;SDS011;8051;50.820;4.884;2023-02-01T03:48:36;22.67;;;20.17;;
15905;SDS011;8051;50.820;4.884;2023-02-01T03:51:05;22.33;;;20.03;;
15905;SDS011;8051;50.820;4.884;2023-02-01T03:53:36;20.67;;;17.93;;
15905;SDS011;8051;50.820;4.884;2023-02-01T03:56:05;22.63;;;19.87;;
15905;SDS011;8051;50.820;4.884;2023-02-01T03:58:33;23.90;;;21.27;;
15905;SDS011;8051;50.820;4.884;2023-02-01T04:01:01;25.30;;;21.00;;
15905;SDS011;8051;50.820;4.884;2023-02-01T04:03:29;23.33;;;20.57;;
15905;SDS011;8051;50.820;4.884;2023-02-01T04:05:57;25.10;;;18.57;;
15905;SDS011;8051;50.820;4.884;2023-02-01T04:08:24;30.17;;;22.37;;
15905;SDS011;8051;50.820;4.884;2023-02-01T04:10:53;32.63;;;20.07;;
15905;SDS011;8051;50.820;4.884;2023-02-01T04:13:21;21.73;;;18.57;;
15905;SDS011;8051;50.820;4.884;2023-02-01T04:15:48;23.73;;;21.47;;
15905;SDS011;8051;50.820;4.884;2023-02-01T04:18:16;24.23;;;21.57;;
15905;SDS011;8051;50.820;4.884;2023-02-01T04:20:43;24.80;;;22.17;;
15905;SDS011;8051;50.820;4.884;2023-02-01T04:23:11;30.83;;;21.87;;
15905;SDS011;8051;50.820;4.884;2023-02-01T04:25:40;29.00;;;21.00;;
15905;SDS011;8051;50.820;4.884;2023-02-01T04:28:09;26.67;;;21.73;;
15905;SDS011;8051;50.820;4.884;2023-02-01T04:30:37;25.73;;;23.10;;
15905;SDS011;8051;50.820;4.884;2023-02-01T04:33:04;25.87;;;22.40;;
15905;SDS011;8051;50.820;4.884;2023-02-01T04:35:32;32.23;;;22.60;;
15905;SDS011;8051;50.820;4.884;2023-02-01T04:38:00;27.97;;;22.50;;
15905;SDS011;8051;50.820;4.884;2023-02-01T04:40:28;23.87;;;19.17;;
15905;SDS011;8051;50.820;4.884;2023-02-01T04:42:55;34.87;;;22.50;;
15905;SDS011;8051;50.820;4.884;2023-02-01T04:45:24;22.87;;;20.67;;
15905;SDS011;8051;50.820;4.884;2023-02-01T04:47:52;29.27;;;21.83;;
15905;SDS011;8051;50.820;4.884;2023-02-01T04:50:19;23.70;;;21.60;;
15905;SDS011;8051;50.820;4.884;2023-02-01T04:52:48;31.77;;;21.93;;
15905;SDS011;8051;50.820;4.884;2023-02-01T04:55:16;34.17;;;22.13;;
15905;SDS011;8051;50.820;4.884;2023-02-01T04:57:43;24.10;;;20.37;;
15905;SDS011;8051;50.820;4.884;2023-02-01T05:00:11;22.77;;;20.27;;
15905;SDS011;8051;50.820;4.884;2023-02-01T05:02:41;34.33;;;19.60;;
15905;SDS011;8051;50.820;4.884;2023-02-01T05:05:08;27.47;;;22.20;;
15905;SDS011;8051;50.820;4.884;2023-02-01T05:07:36;32.97;;;19.80;;
15905;SDS011;8051;50.820;4.884;2023-02-01T05:10:04;28.83;;;19.33;;
15905;SDS011;8051;50.820;4.884;2023-02-01T05:12:31;28.00;;;21.83;;
15905;SDS011;8051;50.820;4.884;2023-02-01T05:15:31;23.87;;;21.33;;
15905;SDS011;8051;50.820;4.884;2023-02-01T05:18:00;25.80;;;19.07;;
15905;SDS011;8051;50.820;4.884;2023-02-01T05:20:27;27.00;;;22.33;;
15905;SDS011;8051;50.820;4.884;2023-02-01T05:22:55;29.17;;;20.73;;
15905;SDS011;8051;50.820;4.884;2023-02-01T05:25:22;31.77;;;22.53;;
15905;SDS011;8051;50.820;4.884;2023-02-01T05:27:50;28.43;;;21.07;;
15905;SDS011;8051;50.820;4.884;2023-02-01T05:30:17;21.87;;;18.97;;
15905;SDS011;8051;50.820;4.884;2023-02-01T05:32:45;34.23;;;21.57;;
15905;SDS011;8051;50.820;4.884;2023-02-01T05:35:16;29.73;;;22.23;;
15905;SDS011;8051;50.820;4.884;2023-02-01T05:37:44;27.77;;;21.37;;
15905;SDS011;8051;50.820;4.884;2023-02-01T05:40:11;32.17;;;21.93;;
15905;SDS011;8051;50.820;4.884;2023-02-01T05:42:39;31.50;;;24.30;;
15905;SDS011;8051;50.820;4.884;2023-02-01T05:45:07;22.63;;;20.73;;
15905;SDS011;8051;50.820;4.884;2023-02-01T05:47:35;30.57;;;21.70;;
15905;SDS011;8051;50.820;4.884;2023-02-01T05:50:04;25.80;;;23.07;;
15905;SDS011;8051;50.820;4.884;2023-02-01T05:52:34;29.70;;;20.43;;
15905;SDS011;8051;50.820;4.884;2023-02-01T05:55:01;33.60;;;23.77;;
15905;SDS011;8051;50.820;4.884;2023-02-01T05:57:29;28.83;;;20.10;;
15905;SDS011;8051;50.820;4.884;2023-02-01T05:59:57;30.73;;;23.33;;
15905;SDS011;8051;50.820;4.884;2023-02-01T06:02:24;35.00;;;21.13;;
15905;SDS011;8051;50.820;4.884;2023-02-01T06:04:52;33.97;;;23.90;;
15905;SDS011;8051;50.820;4.884;2023-02-01T06:07:19;35.53;;;21.63;;
15905;SDS011;8051;50.820;4.884;2023-02-01T06:09:48;26.53;;;20.90;;
15905;SDS011;8051;50.820;4.884;2023-02-01T06:12:16;24.37;;;20.93;;
15905;SDS011;8051;50.820;4.884;2023-02-01T06:14:43;27.30;;;19.57;;
15905;SDS011;8051;50.820;4.884;2023-02-01T06:17:10;33.23;;;21.13;;
15905;SDS011;8051;50.820;4.884;2023-02-01T06:19:38;28.30;;;22.27;;
15905;SDS011;8051;50.820;4.884;2023-02-01T06:22:06;29.47;;;20.73;;
15905;SDS011;8051;50.820;4.884;2023-02-01T06:24:33;27.87;;;20.00;;
15905;SDS011;8051;50.820;4.884;2023-02-01T06:27:02;30.57;;;22.07;;
15905;SDS011;8051;50.820;4.884;2023-02-01T06:29:30;24.00;;;20.00;;
15905;SDS011;8051;50.820;4.884;2023-02-01T06:31:57;33.60;;;21.20;;
15905;SDS011;8051;50.820;4.884;2023-02-01T06:34:25;31.07;;;21.03;;
15905;SDS011;8051;50.820;4.884;2023-02-01T06:36:52;24.57;;;19.50;;
15905;SDS011;8051;50.820;4.884;2023-02-01T06:39:20;27.77;;;21.50;;
15905;SDS011;8051;50.820;4.884;2023-02-01T06:41:48;22.93;;;20.57;;
15905;SDS011;8051;50.820;4.884;2023-02-01T06:44:17;27.57;;;19.47;;
15905;SDS011;8051;50.820;4.884;2023-02-01T06:46:46;38.13;;;21.53;;
15905;SDS011;8051;50.820;4.884;2023-02-01T06:49:13;22.40;;;20.00;;
15905;SDS011;8051;50.820;4.884;2023-02-01T06:51:40;24.70;;;20.80;;
15905;SDS011;8051;50.820;4.884;2023-02-01T06:54:08;26.93;;;21.43;;
15905;SDS011;8051;50.820;4.884;2023-02-01T06:56:35;30.30;;;20.70;;
15905;SDS011;8051;50.820;4.884;2023-02-01T06:59:03;32.43;;;23.03;;
15905;SDS011;8051;50.820;4.884;2023-02-01T07:01:33;54.43;;;34.70;;
15905;SDS011;8051;50.820;4.884;2023-02-01T07:04:01;35.80;;;25.60;;
15905;SDS011;8051;50.820;4.884;2023-02-01T07:06:28;33.00;;;23.50;;
15905;SDS011;8051;50.820;4.884;2023-02-01T07:08:56;25.33;;;20.87;;
15905;SDS011;8051;50.820;4.884;2023-02-01T07:11:25;28.73;;;21.23;;
15905;SDS011;8051;50.820;4.884;2023-02-01T07:13:53;33.20;;;21.37;;
15905;SDS011;8051;50.820;4.884;2023-02-01T07:16:21;35.30;;;22.17;;
15905;SDS011;8051;50.820;4.884;2023-02-01T07:18:52;35.27;;;23.83;;
15905;SDS011;8051;50.820;4.884;2023-02-01T07:21:19;23.97;;;21.53;;
15905;SDS011;8051;50.820;4.884;2023-02-01T07:23:47;27.97;;;22.43;;
15905;SDS011;8051;50.820;4.884;2023-02-01T07:26:15;25.30;;;22.03;;
15905;SDS011;8051;50.820;4.884;2023-02-01T07:28:42;34.00;;;23.13;;
15905;SDS011;8051;50.820;4.884;2023-02-01T07:31:11;28.83;;;21.83;;
15905;SDS011;8051;50.820;4.884;2023-02-01T07:33:40;29.77;;;22.97;;
15905;SDS011;8051;50.820;4.884;2023-02-01T07:36:10;27.23;;;24.50;;
15905;SDS011;8051;50.820;4.884;2023-02-01T07:38:38;30.50;;;24.97;;
15905;SDS011;8051;50.820;4.884;2023-02-01T07:41:06;26.90;;;22.20;;
15905;SDS011;8051;50.820;4.884;2023-02-01T07:43:34;26.57;;;23.70;;
15905;SDS011;8051;50.820;4.884;2023-02-01T07:46:02;34.80;;;24.13;;
15905;SDS011;8051;50.820;4.884;2023-02-01T07:48:31;31.23;;;23.73;;
15905;SDS011;8051;50.820;4.884;2023-02-01T07:50:59;32.63;;;23.43;;
15905;SDS011;8051;50.820;4.884;2023-02-01T07:53:30;30.50;;;23.17;;
15905;SDS011;8051;50.820;4.884;2023-02-01T07:55:59;34.20;;;23.90;;
15905;SDS011;8051;50.820;4.884;2023-02-01T07:58:27;34.00;;;22.77;;
15905;SDS011;8051;50.820;4.884;2023-02-01T08:00:55;42.97;;;23.03;;
15905;SDS011;8051;50.820;4.884;2023-02-01T08:03:40;33.03;;;23.33;;
15905;SDS011;8051;50.820;4.884;2023-02-01T08:06:07;31.03;;;22.07;;
15905;SDS011;8051;50.820;4.884;2023-02-01T08:08:36;34.97;;;23.47;;
15905;SDS011;8051;50.820;4.884;2023-02-01T08:11:04;33.83;;;22.27;;
15905;SDS011;8051;50.820;4.884;2023-02-01T08:13:33;32.10;;;22.73;;
15905;SDS011;8051;50.820;4.884;2023-02-01T08:16:01;26.67;;;22.00;;
15905;SDS011;8051;50.820;4.884;2023-02-01T08:18:30;27.30;;;23.53;;
15905;SDS011;8051;50.820;4.884;2023-02-01T08:21:02;25.53;;;23.10;;
15905;SDS011;8051;50.820;4.884;2023-02-01T08:23:30;27.37;;;22.97;;
15905;SDS011;8051;50.820;4.884;2023-02-01T08:26:07;25.40;;;22.73;;
15905;SDS011;8051;50.820;4.884;2023-02-01T08:28:36;41.00;;;24.30;;
15905;SDS011;8051;50.820;4.884;2023-02-01T08:31:04;27.77;;;23.17;;
15905;SDS011;8051;50.820;4.884;2023-02-01T08:33:33;24.77;;;22.33;;
15905;SDS011;8051;50.820;4.884;2023-02-01T08:36:02;34.97;;;24.00;;
15905;SDS011;8051;50.820;4.884;2023-02-01T08:38:31;31.33;;;25.30;;
15905;SDS011;8051;50.820;4.884;2023-02-01T08:41:03;28.23;;;22.00;;
15905;SDS011;8051;50.820;4.884;2023-02-01T08:43:33;29.23;;;22.87;;
15905;SDS011;8051;50.820;4.884;2023-02-01T08:46:01;24.50;;;21.90;;
15905;SDS011;8051;50.820;4.884;2023-02-01T08:48:29;33.13;;;22.53;;
15905;SDS011;8051;50.820;4.884;2023-02-01T08:50:57;31.63;;;22.50;;
15905;SDS011;8051;50.820;4.884;2023-02-01T08:53:27;25.50;;;22.37;;
15905;SDS011;8051;50.820;4.884;2023-02-01T08:55:54;25.77;;;22.97;;
15905;SDS011;8051;50.820;4.884;2023-02-01T08:58:22;33.40;;;22.53;;
15905;SDS011;8051;50.820;4.884;2023-02-01T09:00:51;30.17;;;22.53;;
15905;SDS011;8051;50.820;4.884;2023-02-01T09:03:18;32.70;;;22.43;;
15905;SDS011;8051;50.820;4.884;2023-02-01T09:05:46;27.30;;;21.43;;
15905;SDS011;8051;50.820;4.884;2023-02-01T09:08:14;32.47;;;22.17;;
15905;SDS011;8051;50.820;4.884;2023-02-01T09:10:41;31.37;;;22.17;;
15905;SDS011;8051;50.820;4.884;2023-02-01T09:13:09;27.47;;;22.70;;
15905;SDS011;8051;50.820;4.884;2023-02-01T09:15:37;25.13;;;22.13;;
15905;SDS011;8051;50.820;4.884;2023-02-01T09:18:06;32.57;;;22.20;;
15905;SDS011;8051;50.820;4.884;2023-02-01T09:20:33;32.97;;;24.00;;
15905;SDS011;8051;50.820;4.884;2023-02-01T09:23:01;32.60;;;25.17;;
15905;SDS011;8051;50.820;4.884;2023-02-01T09:25:28;37.83;;;23.13;;
15905;SDS011;8051;50.820;4.884;2023-02-01T09:27:56;26.90;;;23.70;;
15905;SDS011;8051;50.820;4.884;2023-02-01T09:30:23;29.53;;;21.87;;
15905;SDS011;8051;50.820;4.884;2023-02-01T09:32:51;23.23;;;20.80;;
15905;SDS011;8051;50.820;4.884;2023-02-01T09:35:19;26.80;;;23.17;;
15905;SDS011;8051;50.820;4.884;2023-02-01T09:37:47;27.67;;;22.93;;
15905;SDS011;8051;50.820;4.884;2023-02-01T09:40:15;24.83;;;22.20;;
15905;SDS011;8051;50.820;4.884;2023-02-01T09:42:50;30.67;;;22.43;;
15905;SDS011;8051;50.820;4.884;2023-02-01T09:45:28;34.93;;;24.43;;
15905;SDS011;8051;50.820;4.884;2023-02-01T09:48:04;28.93;;;23.60;;
15905;SDS011;8051;50.820;4.884;2023-02-01T09:50:39;27.70;;;24.20;;
15905;SDS011;8051;50.820;4.884;2023-02-01T09:53:12;30.87;;;24.00;;
15905;SDS011;8051;50.820;4.884;2023-02-01T09:55:46;28.47;;;22.20;;
15905;SDS011;8051;50.820;4.884;2023-02-01T09:58:17;23.13;;;20.87;;
15905;SDS011;8051;50.820;4.884;2023-02-01T10:00:51;27.40;;;21.80;;
15905;SDS011;8051;50.820;4.884;2023-02-01T10:03:20;24.87;;;21.10;;
15905;SDS011;8051;50.820;4.884;2023-02-01T10:05:59;24.60;;;22.23;;
15905;SDS011;8051;50.820;4.884;2023-02-01T10:11:39;27.57;;;22.70;;
15905;SDS011;8051;50.820;4.884;2023-02-01T10:17:11;29.00;;;23.13;;
15905;SDS011;8051;50.820;4.884;2023-02-01T10:19:52;25.40;;;20.73;;
15905;SDS011;8051;50.820;4.884;2023-02-01T10:22:36;22.93;;;20.57;;
15905;SDS011;8051;50.820;4.884;2023-02-01T10:25:08;32.07;;;23.00;;
15905;SDS011;8051;50.820;4.884;2023-02-01T10:27:45;26.67;;;20.30;;
15905;SDS011;8051;50.820;4.884;2023-02-01T10:30:16;24.40;;;19.80;;
15905;SDS011;8051;50.820;4.884;2023-02-01T10:32:47;26.00;;;20.47;;
15905;SDS011;8051;50.820;4.884;2023-02-01T10:35:18;26.57;;;21.60;;
15905;SDS011;8051;50.820;4.884;2023-02-01T10:37:54;24.27;;;20.77;;
15905;SDS011;8051;50.820;4.884;2023-02-01T10:40:27;21.63;;;19.37;;
15905;SDS011;8051;50.820;4.884;2023-02-01T10:42:56;28.07;;;20.23;;
15905;SDS011;8051;50.820;4.884;2023-02-01T10:45:27;24.80;;;19.93;;
15905;SDS011;8051;50.820;4.884;2023-02-01T10:47:57;23.57;;;19.53;;
15905;SDS011;8051;50.820;4.884;2023-02-01T10:50:29;23.23;;;19.23;;
15905;SDS011;8051;50.820;4.884;2023-02-01T10:53:08;23.57;;;19.97;;
15905;SDS011;8051;50.820;4.884;2023-02-01T10:55:41;20.63;;;18.60;;
15905;SDS011;8051;50.820;4.884;2023-02-01T10:58:15;21.33;;;19.03;;
15905;SDS011;8051;50.820;4.884;2023-02-01T11:00:45;21.90;;;19.70;;
15905;SDS011;8051;50.820;4.884;2023-02-01T11:06:16;22.67;;;20.33;;
15905;SDS011;8051;50.820;4.884;2023-02-01T11:08:50;24.27;;;20.30;;
15905;SDS011;8051;50.820;4.884;2023-02-01T11:11:20;19.60;;;17.87;;
15905;SDS011;8051;50.820;4.884;2023-02-01T11:13:52;24.03;;;19.07;;
15905;SDS011;8051;50.820;4.884;2023-02-01T11:16:23;22.90;;;20.50;;
15905;SDS011;8051;50.820;4.884;2023-02-01T11:18:57;20.73;;;18.53;;
15905;SDS011;8051;50.820;4.884;2023-02-01T11:21:25;22.93;;;20.57;;
15905;SDS011;8051;50.820;4.884;2023-02-01T11:23:55;21.13;;;18.83;;
15905;SDS011;8051;50.820;4.884;2023-02-01T11:26:27;22.53;;;19.57;;
15905;SDS011;8051;50.820;4.884;2023-02-01T11:28:58;22.70;;;20.20;;
15905;SDS011;8051;50.820;4.884;2023-02-01T11:31:29;25.67;;;19.30;;
15905;SDS011;8051;50.820;4.884;2023-02-01T11:33:58;20.13;;;18.20;;
15905;SDS011;8051;50.820;4.884;2023-02-01T11:36:31;22.93;;;20.53;;
15905;SDS011;8051;50.820;4.884;2023-02-01T11:39:23;21.00;;;18.63;;
15905;SDS011;8051;50.820;4.884;2023-02-01T11:42:00;20.80;;;18.63;;
15905;SDS011;8051;50.820;4.884;2023-02-01T11:44:33;28.03;;;19.40;;
15905;SDS011;8051;50.820;4.884;2023-02-01T11:49:49;21.73;;;19.77;;
15905;SDS011;8051;50.820;4.884;2023-02-01T11:52:19;20.50;;;18.57;;
15905;SDS011;8051;50.820;4.884;2023-02-01T11:55:01;22.33;;;19.73;;
15905;SDS011;8051;50.820;4.884;2023-02-01T11:57:43;20.17;;;18.50;;
15905;SDS011;8051;50.820;4.884;2023-02-01T12:00:28;20.77;;;18.40;;
15905;SDS011;8051;50.820;4.884;2023-02-01T12:03:20;18.67;;;17.17;;
15905;SDS011;8051;50.820;4.884;2023-02-01T12:06:07;21.10;;;18.80;;
15905;SDS011;8051;50.820;4.884;2023-02-01T12:08:47;19.80;;;17.73;;
15905;SDS011;8051;50.820;4.884;2023-02-01T12:14:26;19.03;;;17.13;;
15905;SDS011;8051;50.820;4.884;2023-02-01T12:17:17;20.10;;;17.80;;
15905;SDS011;8051;50.820;4.884;2023-02-01T12:20:15;22.53;;;18.47;;
15905;SDS011;8051;50.820;4.884;2023-02-01T12:22:58;21.20;;;19.47;;
15905;SDS011;8051;50.820;4.884;2023-02-01T12:25:42;19.40;;;17.77;;
15905;SDS011;8051;50.820;4.884;2023-02-01T12:28:36;20.00;;;17.47;;
15905;SDS011;8051;50.820;4.884;2023-02-01T12:34:23;18.97;;;17.17;;
15905;SDS011;8051;50.820;4.884;2023-02-01T12:37:04;20.10;;;17.50;;
15905;SDS011;8051;50.820;4.884;2023-02-01T12:39:48;17.90;;;15.97;;
15905;SDS011;8051;50.820;4.884;2023-02-01T12:42:26;18.47;;;17.00;;
15905;SDS011;8051;50.820;4.884;2023-02-01T12:45:00;18.40;;;16.33;;
15905;SDS011;8051;50.820;4.884;2023-02-01T12:47:39;18.10;;;16.57;;
15905;SDS011;8051;50.820;4.884;2023-02-01T12:50:12;17.53;;;16.10;;
15905;SDS011;8051;50.820;4.884;2023-02-01T12:52:47;17.67;;;15.87;;
15905;SDS011;8051;50.820;4.884;2023-02-01T12:55:19;17.23;;;15.63;;
15905;SDS011;8051;50.820;4.884;2023-02-01T12:57:50;17.87;;;16.40;;
15905;SDS011;8051;50.820;4.884;2023-02-01T13:00:24;19.60;;;15.37;;
15905;SDS011;8051;50.820;4.884;2023-02-01T13:02:59;16.30;;;14.77;;
15905;SDS011;8051;50.820;4.884;2023-02-01T13:05:34;16.67;;;15.20;;
15905;SDS011;8051;50.820;4.884;2023-02-01T13:08:11;20.33;;;15.93;;
15905;SDS011;8051;50.820;4.884;2023-02-01T13:10:43;17.00;;;15.43;;
15905;SDS011;8051;50.820;4.884;2023-02-01T13:13:16;18.10;;;16.57;;
15905;SDS011;8051;50.820;4.884;2023-02-01T13:15:51;18.00;;;16.30;;
15905;SDS011;8051;50.820;4.884;2023-02-01T13:18:24;16.73;;;15.07;;
15905;SDS011;8051;50.820;4.884;2023-02-01T13:21:02;17.33;;;15.67;;
15905;SDS011;8051;50.820;4.884;2023-02-01T13:23:33;17.87;;;16.37;;
15905;SDS011;8051;50.820;4.884;2023-02-01T13:26:04;17.90;;;15.63;;
15905;SDS011;8051;50.820;4.884;2023-02-01T13:28:40;19.20;;;16.10;;
15905;SDS011;8051;50.820;4.884;2023-02-01T13:31:27;18.73;;;16.03;;
15905;SDS011;8051;50.820;4.884;2023-02-01T13:34:27;18.17;;;16.40;;
15905;SDS011;8051;50.820;4.884;2023-02-01T13:37:27;16.53;;;15.17;;
15905;SDS011;8051;50.820;4.884;2023-02-01T13:40:16;16.63;;;15.53;;
15905;SDS011;8051;50.820;4.884;2023-02-01T13:42:52;16.50;;;15.40;;
15905;SDS011;8051;50.820;4.884;2023-02-01T13:45:23;17.83;;;16.17;;
15905;SDS011;8051;50.820;4.884;2023-02-01T13:47:56;18.57;;;16.43;;
15905;SDS011;8051;50.820;4.884;2023-02-01T13:50:26;15.53;;;14.23;;
15905;SDS011;8051;50.820;4.884;2023-02-01T13:52:56;18.03;;;16.07;;
15905;SDS011;8051;50.820;4.884;2023-02-01T13:55:30;18.87;;;17.23;;
15905;SDS011;8051;50.820;4.884;2023-02-01T13:58:01;18.10;;;16.37;;
15905;SDS011;8051;50.820;4.884;2023-02-01T14:00:42;16.93;;;15.33;;
15905;SDS011;8051;50.820;4.884;2023-02-01T14:03:12;17.63;;;15.93;;
15905;SDS011;8051;50.820;4.884;2023-02-01T14:15:23;17.73;;;15.93;;
15905;SDS011;8051;50.820;4.884;2023-02-01T14:17:52;17.90;;;16.13;;
15905;SDS011;8051;50.820;4.884;2023-02-01T14:23:22;19.70;;;17.50;;
15905;SDS011;8051;50.820;4.884;2023-02-01T14:28:58;18.33;;;16.93;;
15905;SDS011;8051;50.820;4.884;2023-02-01T14:31:37;18.27;;;16.40;;
15905;SDS011;8051;50.820;4.884;2023-02-01T14:34:39;18.50;;;16.20;;
15905;SDS011;8051;50.820;4.884;2023-02-01T14:37:27;18.27;;;16.80;;
15905;SDS011;8051;50.820;4.884;2023-02-01T14:39:59;18.57;;;17.03;;
15905;SDS011;8051;50.820;4.884;2023-02-01T14:42:29;18.23;;;16.73;;
15905;SDS011;8051;50.820;4.884;2023-02-01T14:51:10;18.97;;;16.57;;
15905;SDS011;8051;50.820;4.884;2023-02-01T14:53:42;17.90;;;16.40;;
15905;SDS011;8051;50.820;4.884;2023-02-01T14:56:12;20.33;;;18.37;;
15905;SDS011;8051;50.820;4.884;2023-02-01T14:58:47;18.23;;;16.83;;
15905;SDS011;8051;50.820;4.884;2023-02-01T15:01:21;19.40;;;17.50;;
15905;SDS011;8051;50.820;4.884;2023-02-01T15:03:52;20.67;;;18.83;;
15905;SDS011;8051;50.820;4.884;2023-02-01T15:06:27;20.10;;;18.53;;
15905;SDS011;8051;50.820;4.884;2023-02-01T15:09:00;19.33;;;17.57;;
15905;SDS011;8051;50.820;4.884;2023-02-01T15:11:30;22.50;;;20.60;;
15905;SDS011;8051;50.820;4.884;2023-02-01T15:13:57;20.53;;;18.93;;
15905;SDS011;8051;50.820;4.884;2023-02-01T15:16:25;19.77;;;18.17;;
15905;SDS011;8051;50.820;4.884;2023-02-01T15:19:09;20.20;;;18.07;;
15905;SDS011;8051;50.820;4.884;2023-02-01T15:21:44;21.13;;;19.23;;
15905;SDS011;8051;50.820;4.884;2023-02-01T15:24:14;20.73;;;18.80;;
15905;SDS011;8051;50.820;4.884;2023-02-01T15:26:46;21.93;;;20.10;;
15905;SDS011;8051;50.820;4.884;2023-02-01T15:29:14;22.63;;;20.40;;
15905;SDS011;8051;50.820;4.884;2023-02-01T15:31:42;22.27;;;20.47;;
15905;SDS011;8051;50.820;4.884;2023-02-01T15:34:12;22.30;;;20.40;;
15905;SDS011;8051;50.820;4.884;2023-02-01T15:36:39;21.33;;;19.23;;
15905;SDS011;8051;50.820;4.884;2023-02-01T15:39:12;19.97;;;18.23;;
15905;SDS011;8051;50.820;4.884;2023-02-01T15:41:46;19.33;;;17.93;;
15905;SDS011;8051;50.820;4.884;2023-02-01T15:44:21;23.07;;;20.10;;
15905;SDS011;8051;50.820;4.884;2023-02-01T15:46:57;19.90;;;18.30;;
15905;SDS011;8051;50.820;4.884;2023-02-01T15:49:26;20.30;;;18.27;;